Estaciones Metar próximas

 

LELL - Sabadell, Spain
Distancia a la estación: E 18km
Actualizado: 28/10/2021 12:30
Despejado
Despejado
 Viento del calm
Viento: Calma
Temperatura: 18°C
Rocío: 9°C
Humedad: 56%
Barómetro: 1019 hPa
Resumen: Despejado
Visibilidad: greater than 10 km
2021/10/28 10:30 LELL 281030Z 00000KT CAVOK 18/09 Q1019
LEBL - Barcelona Airpor, Spain
Distancia a la estación: SSE 33km
Actualizado: 28/10/2021 12:30
Despejado
Despejado
 Viento del NO
Viento: NO 7 km/h
Temperatura: 19°C
Rocío: 10°C
Humedad: 56%
Barómetro: 1019 hPa
Resumen: Despejado
Visibilidad: greater than 10 km
2021/10/28 10:30 LEBL 281030Z 31004KT 260V340 CAVOK 19/10 Q1019 NOSIG
LERS - Reus (civ/Mil), Spain
Distancia a la estación: SO 75km
Actualizado: 28/10/2021 12:30
Nubes dispersas
Nubes dispersas
 Viento del varies
Viento: varies 4 km/h
Temperatura: 20°C
Rocío: 11°C
Humedad: 56%
Barómetro: 1019 hPa
Nubes: Nubes dispersas
Visibilidad: 10 km
Detalle Nubes: Nubes dispersas 914 m
2021/10/28 10:30 LERS 281030Z VRB02KT 9999 FEW030 20/11 Q1019
 
LEGE - Gerona/Costa Bra, Spain
Distancia a la estación: ENE 83km
Actualizado: 28/10/2021 12:30
Despejado
Despejado
 Viento del NE
Viento: NE 9 km/h
Temperatura: 18°C
Rocío: 11°C
Humedad: 64%
Barómetro: 1019 hPa
Resumen: Despejado
Visibilidad: greater than 10 km
2021/10/28 10:30 LEGE 281030Z 04005KT 340V090 CAVOK 18/11 Q1019
LFMP - Perpignan/Rivesa, France
Distancia a la estación: NNE 155km
Actualizado: 28/10/2021 12:30
Nubes dispersas
Nubes dispersas
 Viento del E
Viento: E 15 km/h
Temperatura: 20°C
Rocío: 12°C
Humedad: 60%
Barómetro: 1019 hPa
Nubes: Nubes dispersas
Visibilidad: 10 km
Detalle Nubes: Nubes dispersas 610 m
2021/10/28 10:30 LFMP 281030Z AUTO 09008KT 060V130 9999 FEW020 20/12 Q1019 NOSIG
LFMK - Carcassonne/Salv, France
Distancia a la estación: N 191km
Actualizado: 28/10/2021 12:30
Muy nuboso
Muy nuboso
 Viento del E
Viento: E 22 km/h
Temperatura: 17°C
Rocío: 12°C
Humedad: 73%
Barómetro: 1018 hPa
Nubes: Muy nuboso
Visibilidad: 10 km
Detalle Nubes: Muy nuboso 640 m
2021/10/28 10:30 LFMK 281030Z AUTO 09012KT 9999 BKN021 17/12 Q1018 TEMPO 08015G25KT
 
LEHC - Huesca-Pirineos, Spain
Distancia a la estación: ONO 193km
Actualizado: 28/10/2021 12:30
Nubes dispersas
Nubes dispersas
 Viento del ESE
Viento: ESE 19 km/h
Temperatura: 16°C
Rocío: 8°C
Humedad: 59%
Barómetro: 1019 hPa
Nubes: Nubes dispersas
Visibilidad: 10 km
Detalle Nubes: Nubes dispersas 1372 m
2021/10/28 10:30 LEHC 281030Z 12010KT 080V160 9999 FEW045 16/08 Q1019
LFMU - Beziers/Vias, France
Distancia a la estación: NNE 232km
Actualizado: 28/10/2021 12:30
Tormenta
Tormenta
 Viento del ENE
Viento: ENE 19 km/h
Temperatura: 16°C
Rocío: 12°C
Humedad: 77%
Barómetro: 1020 hPa
Nubes: Tormenta
Visibilidad: 10 km
Detalle Nubes: Muy nuboso 701 m
Muy nuboso 2134 m
Muy nuboso 2621 m
2021/10/28 10:30 LFMU 281030Z AUTO 07010KT 9999 BKN023/// BKN070/// BKN086/// ///CB 16/12 Q1020 TEMPO SHRA BECMG 13010KT NSC
LEPA - Palma De Mallorc, Spain
Distancia a la estación: SSE 233km
Actualizado: 28/10/2021 12:30
Nubes dispersas
Nubes dispersas
 Viento del SO
Viento: SO 6 km/h
Temperatura: 21°C
Rocío: 13°C
Humedad: 60%
Barómetro: 1018 hPa
Nubes: Nubes dispersas
Visibilidad: 10 km
Detalle Nubes: Nubes dispersas 610 m
Nubes dispersas 762 m
2021/10/28 10:30 LEPA 281030Z 22003KT 170V320 9999 FEW020 FEW025TCU 21/13 Q1018 TEMPO SHRA FEW020CB
 
LFBO - Toulouse/Blagnac, France
Distancia a la estación: N 236km
Actualizado: 28/10/2021 12:30
Despejado
Despejado
 Viento del SSE
Viento: SSE 31 km/h, Racha: 50 km/h
Temperatura: 19°C
Rocío: 11°C
Humedad: 60%
Barómetro: 1016 hPa
Resumen: Despejado
Visibilidad: greater than 10 km
2021/10/28 10:30 LFBO 281030Z AUTO 15017G27KT 110V170 CAVOK 19/11 Q1016 NOSIG
LFBT - Tarbes/Ossun, France
Distancia a la estación: NO 239km
Actualizado: 28/10/2021 12:30
Despejado
Despejado
 Viento del varies
Viento: varies 4 km/h
Temperatura: 20°C
Rocío: 6°C
Humedad: 40%
Barómetro: 1015 hPa
Resumen: Despejado
Visibilidad: greater than 10 km
2021/10/28 10:30 LFBT 281030Z AUTO VRB02KT CAVOK 20/06 Q1015 NOSIG
LEZG - Zaragoza (mil/Ci, Spain
Distancia a la estación: O 242km
Actualizado: 28/10/2021 12:30
Muy nuboso
Muy nuboso
 Viento del E
Viento: E 17 km/h
Temperatura: 15°C
Rocío: 11°C
Humedad: 77%
Barómetro: 1018 hPa
Nubes: Muy nuboso
Visibilidad: 10 km
Detalle Nubes: Muy nuboso 396 m
2021/10/28 10:30 LEZG 281030Z 10009KT 060V140 9999 BKN013 15/11 Q1018